createdAt,value
2022-12-06T00:00:43.146Z,56.78
2022-12-06T00:03:58.797Z,52.43
2022-12-06T00:07:11.558Z,51.90
2022-12-06T00:10:23.473Z,50.70
2022-12-06T00:13:35.917Z,54.70
2022-12-06T00:16:47.631Z,59.80
2022-12-06T00:19:59.802Z,56.80
2022-12-06T00:23:11.797Z,57.33
2022-12-06T00:26:25.529Z,56.23
2022-12-06T00:29:37.453Z,54.73
2022-12-06T00:32:49.191Z,57.95
2022-12-06T00:36:05.870Z,57.85
2022-12-06T00:39:19.852Z,52.50
2022-12-06T00:42:31.600Z,56.48
2022-12-06T00:45:43.211Z,53.60
2022-12-06T00:48:56.179Z,56.90
2022-12-06T00:52:07.985Z,58.30
2022-12-06T00:55:19.761Z,57.13
2022-12-06T00:58:31.704Z,57.83
2022-12-06T01:01:43.737Z,56.48
2022-12-06T01:04:55.869Z,51.25
2022-12-06T01:08:07.906Z,54.70
2022-12-06T01:11:22.179Z,56.20
2022-12-06T01:14:33.971Z,61.65
2022-12-06T01:17:45.879Z,57.10
2022-12-06T01:20:57.541Z,54.53
2022-12-06T01:24:10.966Z,54.53
2022-12-06T01:27:22.898Z,54.68
2022-12-06T01:30:35.305Z,57.93
2022-12-06T01:33:47.648Z,61.20
2022-12-06T01:36:59.462Z,59.63
2022-12-06T01:40:14.215Z,55.90
2022-12-06T01:43:41.750Z,58.33
2022-12-06T01:50:07.605Z,57.63
2022-12-06T01:53:25.258Z,58.18
2022-12-06T01:56:33.657Z,55.45
2022-12-06T01:59:46.083Z,55.50
2022-12-06T02:02:59.633Z,51.28
2022-12-06T02:06:14.664Z,56.83
2022-12-06T02:09:28.313Z,54.33
2022-12-06T02:12:39.984Z,52.38
2022-12-06T02:15:58.760Z,50.43
2022-12-06T02:19:19.048Z,45.70
2022-12-06T02:22:49.264Z,46.45
2022-12-06T02:26:26.046Z,47.03
2022-12-06T02:30:11.091Z,50.33
2022-12-06T02:33:29.823Z,51.83
2022-12-06T02:36:48.053Z,48.50
2022-12-06T02:40:05.531Z,51.53
2022-12-06T02:43:21.701Z,51.35
2022-12-06T02:46:36.847Z,53.73
2022-12-06T02:49:55.012Z,57.88
2022-12-06T02:53:10.160Z,56.10
2022-12-06T02:56:23.275Z,55.98
2022-12-06T02:59:35.210Z,52.73
2022-12-06T03:02:47.250Z,52.85
2022-12-06T03:06:13.177Z,52.75
2022-12-06T03:09:43.112Z,52.28
2022-12-06T03:13:00.865Z,53.23
2022-12-06T03:16:18.767Z,51.93
2022-12-06T03:19:33.938Z,50.70
2022-12-06T03:22:50.199Z,48.33
2022-12-06T03:26:04.968Z,48.70
2022-12-06T03:29:19.734Z,48.25
2022-12-06T03:32:36.153Z,47.63
2022-12-06T03:35:50.416Z,45.20
2022-12-06T03:39:05.205Z,43.08
2022-12-06T03:42:17.962Z,42.75
2022-12-06T03:45:34.637Z,40.83
2022-12-06T03:48:50.848Z,40.55
2022-12-06T03:52:03.698Z,45.48
2022-12-06T03:55:16.521Z,42.43
2022-12-06T03:58:28.335Z,41.45
2022-12-06T04:01:41.188Z,38.00
2022-12-06T04:04:53.432Z,37.38
2022-12-06T04:08:05.214Z,38.73
2022-12-06T04:11:17.320Z,42.45
2022-12-06T04:14:31.869Z,42.90
2022-12-06T04:18:01.533Z,38.65
2022-12-06T04:21:27.820Z,39.05
2022-12-06T04:24:39.774Z,40.15
2022-12-06T04:28:05.922Z,38.98
2022-12-06T04:31:32.731Z,40.50
2022-12-06T04:34:59.146Z,41.95
2022-12-06T04:38:25.469Z,42.28
2022-12-06T04:41:51.908Z,44.93
2022-12-06T04:45:03.759Z,41.43
2022-12-06T04:48:15.479Z,41.95
2022-12-06T04:51:27.427Z,39.88
2022-12-06T04:54:40.261Z,44.35
2022-12-06T04:57:52.464Z,43.08
2022-12-06T05:01:04.300Z,44.18
2022-12-06T05:04:16.279Z,42.13
2022-12-06T05:07:28.310Z,44.40
2022-12-06T05:10:40.204Z,46.38
2022-12-06T05:13:52.013Z,49.78
2022-12-06T05:17:03.722Z,48.88
2022-12-06T05:20:18.289Z,50.53
2022-12-06T05:23:30.550Z,52.40
2022-12-06T05:26:42.616Z,52.83
2022-12-06T05:29:54.333Z,53.60
2022-12-06T05:33:06.290Z,53.00
2022-12-06T05:36:23.020Z,51.10
2022-12-06T05:39:34.732Z,46.50
2022-12-06T05:42:49.762Z,48.60
2022-12-06T05:46:02.869Z,47.98
2022-12-06T05:49:14.841Z,48.38
2022-12-06T05:52:26.918Z,47.05
2022-12-06T05:55:38.797Z,46.68
2022-12-06T05:58:50.940Z,46.03
2022-12-06T06:02:02.849Z,43.85
2022-12-06T06:05:16.185Z,43.30
2022-12-06T06:08:28.690Z,43.83
2022-12-06T06:11:40.360Z,44.75
2022-12-06T06:14:53.265Z,43.30
2022-12-06T06:18:04.995Z,43.53
2022-12-06T06:21:16.986Z,40.35
2022-12-06T06:24:28.895Z,129.18
2022-12-06T06:27:43.016Z,59.20
2022-12-06T06:30:55.165Z,45.68
2022-12-06T06:34:07.280Z,39.65
2022-12-06T06:37:19.126Z,38.98
2022-12-06T06:40:30.850Z,37.23
2022-12-06T06:43:43.971Z,37.70
2022-12-06T06:46:55.643Z,36.60
2022-12-06T06:50:07.398Z,39.95
2022-12-06T06:53:19.254Z,35.43
2022-12-06T06:56:31.210Z,40.80
2022-12-06T06:59:43.070Z,34.70
2022-12-06T07:02:54.849Z,46.05
2022-12-06T07:06:08.939Z,31.90
2022-12-06T07:09:20.953Z,31.95
2022-12-06T07:12:32.583Z,28.83
2022-12-06T07:15:44.887Z,38.08
2022-12-06T07:18:56.745Z,40.35
2022-12-06T07:22:08.351Z,28.85
2022-12-06T07:25:20.755Z,29.55
2022-12-06T07:28:32.440Z,27.00
2022-12-06T07:31:44.491Z,26.90
2022-12-06T07:34:56.115Z,25.15
2022-12-06T07:38:08.872Z,23.73
2022-12-06T07:41:35.814Z,23.63
2022-12-06T07:45:07.515Z,22.75
2022-12-06T07:48:20.933Z,21.18
2022-12-06T07:51:32.613Z,22.38
2022-12-06T07:54:44.213Z,21.63
2022-12-06T07:57:55.824Z,24.38
2022-12-06T08:01:08.329Z,22.78
2022-12-06T08:04:20.567Z,21.88
2022-12-06T08:07:33.060Z,22.83
2022-12-06T08:10:44.793Z,22.40
2022-12-06T08:13:56.626Z,22.40
2022-12-06T08:17:08.714Z,22.88
2022-12-06T08:20:20.742Z,22.50
2022-12-06T08:23:34.421Z,24.68
2022-12-06T08:26:46.170Z,21.63
2022-12-06T08:29:58.174Z,25.25
2022-12-06T08:33:10.135Z,22.65
2022-12-06T08:36:24.628Z,22.35
2022-12-06T08:39:36.605Z,19.93
2022-12-06T08:42:48.300Z,20.55
2022-12-06T08:46:00.177Z,21.13
2022-12-06T08:49:12.219Z,22.65
2022-12-06T08:52:24.230Z,22.00
2022-12-06T08:55:35.959Z,22.33
2022-12-06T08:58:47.670Z,20.95
2022-12-06T09:01:59.441Z,29.28
2022-12-06T09:05:12.379Z,33.48
2022-12-06T09:08:24.191Z,85.48
2022-12-06T09:11:36.341Z,27.58
2022-12-06T09:14:48.235Z,22.78
2022-12-06T09:17:59.918Z,21.28
2022-12-06T09:21:15.944Z,20.73
2022-12-06T09:24:27.961Z,21.15
2022-12-06T09:27:39.653Z,21.93
2022-12-06T09:30:51.343Z,23.02
2022-12-06T09:34:03.211Z,22.33
2022-12-06T09:37:18.902Z,23.75
2022-12-06T09:40:42.718Z,23.98
2022-12-06T09:44:04.044Z,53.60
2022-12-06T09:47:25.397Z,24.88
2022-12-06T09:50:43.555Z,23.25
2022-12-06T09:54:09.167Z,24.25
2022-12-06T09:57:26.609Z,21.95
2022-12-06T10:00:44.742Z,21.70
2022-12-06T10:04:24.647Z,21.53
2022-12-06T10:07:42.054Z,21.93
2022-12-06T10:11:08.727Z,22.63
2022-12-06T10:14:30.261Z,22.55
2022-12-06T10:17:53.531Z,20.98
2022-12-06T10:21:13.585Z,20.38
2022-12-06T10:24:40.409Z,20.30
2022-12-06T10:28:00.677Z,22.50
2022-12-06T10:31:21.090Z,23.23
2022-12-06T10:34:49.275Z,30.50
2022-12-06T10:38:13.396Z,22.63
2022-12-06T10:41:30.781Z,22.75
2022-12-06T10:44:47.742Z,20.85
2022-12-06T10:48:02.783Z,20.98
2022-12-06T10:51:19.521Z,22.78
2022-12-06T10:54:37.848Z,21.45
2022-12-06T10:57:56.107Z,21.98
2022-12-06T11:01:11.993Z,20.25
2022-12-06T11:04:29.718Z,20.50
2022-12-06T11:07:45.428Z,21.10
2022-12-06T11:10:59.386Z,22.18
2022-12-06T11:14:20.457Z,108.60
2022-12-06T11:17:36.401Z,25.25
2022-12-06T11:20:56.877Z,22.23
2022-12-06T11:24:14.485Z,21.45
2022-12-06T11:27:32.087Z,21.80
2022-12-06T11:30:44.050Z,23.65
2022-12-06T11:33:56.151Z,22.20
2022-12-06T11:37:10.406Z,21.45
2022-12-06T11:40:29.182Z,20.70
2022-12-06T11:43:41.902Z,22.18
2022-12-06T11:46:58.154Z,23.70
2022-12-06T11:50:17.173Z,23.78
2022-12-06T11:53:34.798Z,22.15
2022-12-06T11:56:46.717Z,22.10
2022-12-06T12:00:22.873Z,21.77
2022-12-06T12:03:38.955Z,22.18
2022-12-06T12:06:52.337Z,21.60
2022-12-06T12:10:08.792Z,22.23
2022-12-06T12:13:44.050Z,22.13
2022-12-06T12:17:00.787Z,21.40
2022-12-06T12:20:24.506Z,22.83
2022-12-06T12:23:40.678Z,21.28
2022-12-06T12:26:52.654Z,23.38
2022-12-06T12:30:32.996Z,22.30
2022-12-06T12:33:44.921Z,21.95
2022-12-06T12:37:00.799Z,20.63
2022-12-06T12:40:27.034Z,20.40
2022-12-06T12:43:40.206Z,19.80
2022-12-06T12:46:55.216Z,20.55
2022-12-06T12:50:23.970Z,20.40
2022-12-06T12:53:40.479Z,19.80
2022-12-06T12:56:52.752Z,17.65
2022-12-06T13:00:06.069Z,18.38
2022-12-06T13:06:45.577Z,18.65
2022-12-06T13:10:05.014Z,19.18
2022-12-06T13:13:25.336Z,19.48
2022-12-06T13:16:42.382Z,19.00
2022-12-06T13:23:10.223Z,17.63
2022-12-06T13:26:27.258Z,19.23
2022-12-06T13:32:57.148Z,18.95
2022-12-06T13:39:50.685Z,18.65
2022-12-06T13:43:02.728Z,17.85
2022-12-06T13:46:37.756Z,19.20
2022-12-06T13:49:51.597Z,18.83
2022-12-06T13:53:09.721Z,15.38
2022-12-06T13:56:39.049Z,10.78
2022-12-06T13:59:50.969Z,9.10
2022-12-06T14:03:03.935Z,8.48
2022-12-06T14:06:17.568Z,8.58
2022-12-06T14:09:31.083Z,6.93
2022-12-06T14:12:43.198Z,7.40
2022-12-06T14:15:57.856Z,5.83
2022-12-06T14:19:21.585Z,6.23
2022-12-06T14:22:37.927Z,6.40
2022-12-06T14:25:49.922Z,6.33
2022-12-06T14:29:04.707Z,6.58
2022-12-06T14:32:17.132Z,5.60
2022-12-06T14:35:34.335Z,6.15
2022-12-06T14:38:46.388Z,4.85
2022-12-06T14:42:19.127Z,5.75
2022-12-06T14:45:31.175Z,6.08
2022-12-06T14:48:58.636Z,6.03
2022-12-06T14:52:22.540Z,5.40
2022-12-06T14:55:37.187Z,6.20
2022-12-06T14:58:49.510Z,7.28
2022-12-06T15:02:02.047Z,6.95
2022-12-06T15:05:42.151Z,6.60
2022-12-06T15:08:56.098Z,7.40
2022-12-06T15:12:42.130Z,7.25
2022-12-06T15:15:58.895Z,7.05
2022-12-06T15:19:14.319Z,8.13
2022-12-06T15:22:29.486Z,8.08
2022-12-06T15:25:41.453Z,7.98
2022-12-06T15:28:54.411Z,7.35
2022-12-06T15:32:06.618Z,7.55
2022-12-06T15:35:23.842Z,8.28
2022-12-06T15:38:35.894Z,8.15
2022-12-06T15:41:48.315Z,8.35
2022-12-06T15:45:01.398Z,7.68
2022-12-06T15:48:14.837Z,8.63
2022-12-06T15:51:30.068Z,9.05
2022-12-06T15:54:42.075Z,9.70
2022-12-06T15:57:54.328Z,10.30
2022-12-06T16:01:06.683Z,9.93
2022-12-06T16:04:24.365Z,9.68
2022-12-06T16:07:36.389Z,14.13
2022-12-06T16:11:11.222Z,10.38
2022-12-06T16:14:02.615Z,11.23
2022-12-06T16:17:14.780Z,10.93
2022-12-06T16:20:37.905Z,10.35
2022-12-06T16:24:13.824Z,10.53
2022-12-06T16:27:19.041Z,9.93
2022-12-06T16:30:40.126Z,10.40
2022-12-06T16:33:52.267Z,10.33
2022-12-06T16:37:07.636Z,10.03
2022-12-06T16:40:25.548Z,10.63
2022-12-06T16:43:37.765Z,10.18
2022-12-06T16:46:50.642Z,10.78
2022-12-06T16:50:03.065Z,11.15
2022-12-06T16:53:16.607Z,10.85
2022-12-06T16:56:28.578Z,11.83
2022-12-06T16:59:42.526Z,11.38
2022-12-06T17:02:55.270Z,11.30
2022-12-06T17:06:07.783Z,11.60
2022-12-06T17:09:20.374Z,11.45
2022-12-06T17:12:32.980Z,11.65
2022-12-06T17:15:44.943Z,11.38
2022-12-06T17:18:57.266Z,11.88
2022-12-06T17:22:09.417Z,11.28
2022-12-06T17:25:22.152Z,11.10
2022-12-06T17:28:34.933Z,10.73
2022-12-06T17:31:47.258Z,12.05
2022-12-06T17:34:59.835Z,11.05
2022-12-06T17:38:12.128Z,9.88
2022-12-06T17:41:45.821Z,10.65
2022-12-06T17:44:57.768Z,10.60
2022-12-06T17:48:10.591Z,11.20
2022-12-06T17:51:22.869Z,10.55
2022-12-06T17:54:35.301Z,10.45
2022-12-06T17:57:47.155Z,9.73
2022-12-06T18:00:59.443Z,10.03
2022-12-06T18:04:13.749Z,10.18
2022-12-06T18:07:26.413Z,10.80
2022-12-06T18:10:38.204Z,10.83
2022-12-06T18:13:51.086Z,10.28
2022-12-06T18:17:03.376Z,10.43
2022-12-06T18:20:17.090Z,10.85
2022-12-06T18:23:29.165Z,9.48
2022-12-06T18:26:41.837Z,9.40
2022-12-06T18:29:53.915Z,10.53
2022-12-06T18:33:08.618Z,10.28
2022-12-06T18:36:21.258Z,11.70
2022-12-06T18:39:33.278Z,10.58
2022-12-06T18:42:45.488Z,10.00
2022-12-06T18:46:04.979Z,10.28
2022-12-06T18:49:18.522Z,11.10
2022-12-06T18:52:30.703Z,9.55
2022-12-06T18:55:42.912Z,10.53
2022-12-06T18:58:55.638Z,9.65
2022-12-06T19:02:07.727Z,10.15
2022-12-06T19:05:39.394Z,10.30
2022-12-06T19:08:34.181Z,10.33
2022-12-06T19:11:49.480Z,9.33
2022-12-06T19:15:01.595Z,9.00
2022-12-06T19:18:13.829Z,9.23
2022-12-06T19:21:26.228Z,8.50
2022-12-06T19:24:38.231Z,7.95
2022-12-06T19:27:50.405Z,8.98
2022-12-06T19:31:08.588Z,7.93
2022-12-06T19:34:26.184Z,7.93
2022-12-06T19:37:38.289Z,7.98
2022-12-06T19:40:50.398Z,8.23
2022-12-06T19:44:21.984Z,8.23
2022-12-06T19:47:34.037Z,8.98
2022-12-06T19:50:46.133Z,8.53
2022-12-06T19:53:58.957Z,9.33
2022-12-06T19:57:11.809Z,9.20
2022-12-06T20:00:24.463Z,8.25
2022-12-06T20:03:36.438Z,9.30
2022-12-06T20:06:49.182Z,9.25
2022-12-06T20:10:01.517Z,9.58
2022-12-06T20:13:13.812Z,9.88
2022-12-06T20:16:25.748Z,9.28
2022-12-06T20:19:37.989Z,9.43
2022-12-06T20:22:50.035Z,8.45
2022-12-06T20:26:03.932Z,9.53
2022-12-06T20:29:17.990Z,9.98
2022-12-06T20:32:29.891Z,9.90
2022-12-06T20:35:44.084Z,10.15
2022-12-06T20:38:56.676Z,9.75
2022-12-06T20:42:08.822Z,8.13
2022-12-06T20:45:21.730Z,9.33
2022-12-06T20:48:33.583Z,10.28
2022-12-06T20:51:51.149Z,10.33
2022-12-06T20:55:00.000Z,9.28
2022-12-06T20:58:12.146Z,9.63
2022-12-06T21:01:27.584Z,9.65
2022-12-06T21:04:39.589Z,9.00
2022-12-06T21:07:51.584Z,10.23
2022-12-06T21:14:20.761Z,9.68
2022-12-06T21:17:32.625Z,9.65
2022-12-06T21:20:46.608Z,8.55
2022-12-06T21:23:58.759Z,9.25
2022-12-06T21:27:10.565Z,9.65
2022-12-06T21:30:23.424Z,8.38
2022-12-06T21:33:35.333Z,8.20
2022-12-06T21:36:47.719Z,7.73
2022-12-06T21:39:59.839Z,8.20
2022-12-06T21:43:12.902Z,7.73
2022-12-06T21:46:27.992Z,7.40
2022-12-06T21:49:40.081Z,7.35
2022-12-06T21:52:51.954Z,6.90
2022-12-06T21:56:03.957Z,7.08
2022-12-06T21:59:15.860Z,8.30
2022-12-06T22:02:27.858Z,7.70
2022-12-06T22:05:39.999Z,7.20
2022-12-06T22:08:55.859Z,7.48
2022-12-06T22:12:07.961Z,7.43
2022-12-06T22:15:20.161Z,7.18
2022-12-06T22:18:33.140Z,8.30
2022-12-06T22:21:44.952Z,8.50
2022-12-06T22:24:56.834Z,7.88
2022-12-06T22:28:08.794Z,8.05
2022-12-06T22:31:22.885Z,6.68
2022-12-06T22:34:35.084Z,6.88
2022-12-06T22:37:46.892Z,7.98
2022-12-06T22:41:04.436Z,8.20
2022-12-06T22:44:18.146Z,7.18
2022-12-06T22:47:30.117Z,6.28
2022-12-06T22:50:42.012Z,6.48
2022-12-06T22:53:58.934Z,5.95
2022-12-06T22:57:10.679Z,6.00
2022-12-06T23:00:24.276Z,6.83
2022-12-06T23:03:37.647Z,7.00
2022-12-06T23:06:49.750Z,6.23
2022-12-06T23:10:01.667Z,6.58
2022-12-06T23:13:13.523Z,6.70
2022-12-06T23:16:28.255Z,6.45
2022-12-06T23:19:40.677Z,7.23
2022-12-06T23:22:52.511Z,6.95
2022-12-06T23:26:11.507Z,6.85
2022-12-06T23:29:23.963Z,6.70
2022-12-06T23:32:36.318Z,6.48
2022-12-06T23:35:48.054Z,7.25
2022-12-06T23:39:00.471Z,13.75
2022-12-06T23:42:12.479Z,7.73
2022-12-06T23:45:24.283Z,7.60
2022-12-06T23:48:37.813Z,6.65
2022-12-06T23:51:50.163Z,7.40
2022-12-06T23:55:02.048Z,7.08
2022-12-06T23:58:13.868Z,7.68
